This is the latest recevied weather packets stored in our database for station/object CE3RCJ-14. If no packets are shown the sender has not sent any weather packets the latest 10 day(s).
| Time | Temp. | Humidity | Pressure | Rain* | Wind** | Luminosity | Snow |
|---|---|---|---|---|---|---|---|
| 1777997882 | 19.44° C | 35% | 1011.6 hPa | - | - | - | - |
| 1777995797 | 18.89° C | 36% | 1012.1 hPa | - | - | - | - |
| 1777994883 | 18.89° C | 36% | 1012.3 hPa | - | - | - | - |
| 1777994583 | 18.89° C | 36% | 1012.4 hPa | - | - | - | - |
| 1777992483 | 18.33° C | 37% | 1013 hPa | - | - | - | - |
| 1777990982 | 17.22° C | 38% | 1013.2 hPa | - | - | - | - |
| 1777989782 | 16.67° C | 39% | 1013.9 hPa | - | - | - | - |
| 1777988882 | 16.11° C | 40% | 1014.4 hPa | - | - | - | - |
| 1777987982 | 15.56° C | 41% | 1014.8 hPa | - | - | - | - |
| 1777987082 | 15° C | 41% | 1015.1 hPa | - | - | - | - |
| 1777985883 | 15° C | 41% | 1015.3 hPa | - | - | - | - |
| 1777984151 | 14.44° C | 42% | 1015.9 hPa | - | - | - | - |
| 1777983782 | 14.44° C | 42% | 1016 hPa | - | - | - | - |
| 1777981712 | 14.44° C | 42% | 1016.2 hPa | - | - | - | - |
| 1777979624 | 14.44° C | 42% | 1016.3 hPa | - | - | - | - |
| 1777978814 | 14.44° C | 42% | 1016.7 hPa | - | - | - | - |
| 1777978411 | 14.44° C | 42% | 1016.4 hPa | - | - | - | - |
| 1777976911 | 14.44° C | 42% | 1016 hPa | - | - | - | - |
| 1777975683 | 13.89° C | 42% | 1015.7 hPa | - | - | - | - |
| 1777973283 | 13.89° C | 42% | 1014.9 hPa | - | - | - | - |
| 1777971782 | 13.89° C | 42% | 1014.7 hPa | - | - | - | - |
| 1777971483 | 13.89° C | 42% | 1014.5 hPa | - | - | - | - |
| 1777967584 | 14.44° C | 41% | 1014 hPa | - | - | - | - |
| 1777966682 | 15° C | 41% | 1013.9 hPa | - | - | - | - |
| 1777966383 | 15° C | 41% | 1013.9 hPa | - | - | - | - |
* Rain since midnight (hover to see other rain measurements)
** Current wind speed in m/s (hover to see current wind gust speed)